sensor_id;sensor_type;location;lat;lon;timestamp;pressure;altitude;pressure_sealevel;temperature;humidity
63622;BME280;49770;47.544;19.074;2023-02-28T05:12:26;101431.00;;;-0.88;73.43
63622;BME280;49770;47.544;19.074;2023-02-28T05:15:29;101429.22;;;-0.92;72.31
63622;BME280;49770;47.544;19.074;2023-02-28T05:18:31;101440.50;;;-0.92;72.20
63622;BME280;49770;47.544;19.074;2023-02-28T05:21:37;101441.38;;;-0.91;72.54
63622;BME280;49770;47.544;19.074;2023-02-28T05:24:40;101445.81;;;-0.86;72.62
63622;BME280;49770;47.544;19.074;2023-02-28T05:27:46;101450.97;;;-0.89;73.73
63622;BME280;49770;47.544;19.074;2023-02-28T05:30:49;101453.66;;;-0.84;72.28
63622;BME280;49770;47.544;19.074;2023-02-28T05:33:52;101453.69;;;-0.81;72.66
63622;BME280;49770;47.544;19.074;2023-02-28T05:36:55;101450.25;;;-0.80;71.91
63622;BME280;49770;47.544;19.074;2023-02-28T05:39:58;101456.41;;;-0.73;72.21
63622;BME280;49770;47.544;19.074;2023-02-28T05:43:01;101447.72;;;-0.74;71.05
63622;BME280;49770;47.544;19.074;2023-02-28T05:46:08;101458.16;;;-0.74;70.45
63622;BME280;49770;47.544;19.074;2023-02-28T05:49:11;101461.63;;;-0.73;70.41
63622;BME280;49770;47.544;19.074;2023-02-28T05:52:14;101459.06;;;-0.69;70.72
63622;BME280;49770;47.544;19.074;2023-02-28T05:55:17;101455.72;;;-0.61;68.83
63622;BME280;49770;47.544;19.074;2023-02-28T05:58:21;101464.37;;;-0.62;69.04
63622;BME280;49770;47.544;19.074;2023-02-28T06:01:30;101470.47;;;-0.62;69.34
63622;BME280;49770;47.544;19.074;2023-02-28T06:04:33;101472.31;;;-0.55;69.22
63622;BME280;49770;47.544;19.074;2023-02-28T06:07:36;101470.00;;;-0.33;67.96
63622;BME280;49770;47.544;19.074;2023-02-28T06:10:39;101479.47;;;-0.39;67.39
63622;BME280;49770;47.544;19.074;2023-02-28T06:13:41;101481.22;;;-0.37;66.88
63622;BME280;49770;47.544;19.074;2023-02-28T06:16:45;101469.09;;;-0.35;67.68
63622;BME280;49770;47.544;19.074;2023-02-28T06:19:47;101477.22;;;-0.10;67.07
63622;BME280;49770;47.544;19.074;2023-02-28T06:22:50;101473.56;;;-0.24;66.99
63622;BME280;49770;47.544;19.074;2023-02-28T06:25:53;101475.47;;;-0.11;66.93
63622;BME280;49770;47.544;19.074;2023-02-28T06:29:03;101486.00;;;-0.03;67.22
63622;BME280;49770;47.544;19.074;2023-02-28T06:32:05;101482.53;;;-0.02;67.95
63622;BME280;49770;47.544;19.074;2023-02-28T06:35:09;101487.81;;;0.03;68.56
63622;BME280;49770;47.544;19.074;2023-02-28T06:38:12;101486.19;;;0.12;69.02
63622;BME280;49770;47.544;19.074;2023-02-28T06:41:15;101493.31;;;0.29;67.54
63622;BME280;49770;47.544;19.074;2023-02-28T06:44:18;101495.97;;;0.31;66.57
63622;BME280;49770;47.544;19.074;2023-02-28T06:47:22;101489.16;;;0.47;65.50
63622;BME280;49770;47.544;19.074;2023-02-28T06:50:24;101496.16;;;0.52;64.80
63622;BME280;49770;47.544;19.074;2023-02-28T06:53:27;101498.84;;;0.57;63.86
63622;BME280;49770;47.544;19.074;2023-02-28T06:56:30;101506.81;;;0.71;63.52
63622;BME280;49770;47.544;19.074;2023-02-28T06:59:34;101498.94;;;0.68;62.92
63622;BME280;49770;47.544;19.074;2023-02-28T07:02:37;101499.19;;;0.94;62.84
63622;BME280;49770;47.544;19.074;2023-02-28T07:05:41;101499.06;;;0.80;62.00
63622;BME280;49770;47.544;19.074;2023-02-28T07:08:44;101501.97;;;1.18;61.25
63622;BME280;49770;47.544;19.074;2023-02-28T07:11:52;101498.56;;;1.28;60.27
63622;BME280;49770;47.544;19.074;2023-02-28T07:14:55;101500.25;;;1.21;60.04
63622;BME280;49770;47.544;19.074;2023-02-28T07:17:58;101501.41;;;1.64;59.20
63622;BME280;49770;47.544;19.074;2023-02-28T07:21:06;101512.03;;;1.98;58.03
63622;BME280;49770;47.544;19.074;2023-02-28T07:24:09;101515.53;;;2.04;57.20
63622;BME280;49770;47.544;19.074;2023-02-28T07:27:12;101518.16;;;2.02;56.74
63622;BME280;49770;47.544;19.074;2023-02-28T07:30:28;101521.53;;;1.81;57.51
63622;BME280;49770;47.544;19.074;2023-02-28T07:33:31;101518.25;;;2.41;56.05
63622;BME280;49770;47.544;19.074;2023-02-28T07:36:34;101516.56;;;2.55;54.33
63622;BME280;49770;47.544;19.074;2023-02-28T07:39:37;101520.09;;;2.95;53.83
63622;BME280;49770;47.544;19.074;2023-02-28T07:42:41;101519.19;;;3.40;52.31
63622;BME280;49770;47.544;19.074;2023-02-28T07:45:48;101530.59;;;3.40;51.75
63622;BME280;49770;47.544;19.074;2023-02-28T07:48:53;101525.34;;;3.01;52.46
63622;BME280;49770;47.544;19.074;2023-02-28T07:51:57;101521.84;;;3.24;52.49
63622;BME280;49770;47.544;19.074;2023-02-28T07:55:01;101520.88;;;3.76;50.23
63622;BME280;49770;47.544;19.074;2023-02-28T07:58:04;101529.72;;;3.38;51.12
63622;BME280;49770;47.544;19.074;2023-02-28T08:01:09;101524.47;;;3.04;52.59
63622;BME280;49770;47.544;19.074;2023-02-28T08:04:12;101525.34;;;3.28;52.16
63622;BME280;49770;47.544;19.074;2023-02-28T08:07:16;101526.22;;;2.85;52.26
63622;BME280;49770;47.544;19.074;2023-02-28T08:10:19;101522.72;;;3.21;52.05
63622;BME280;49770;47.544;19.074;2023-02-28T08:13:22;101520.09;;;3.21;52.06
63622;BME280;49770;47.544;19.074;2023-02-28T08:16:25;101519.19;;;3.55;51.45
63622;BME280;49770;47.544;19.074;2023-02-28T08:19:28;101520.03;;;3.74;49.62
63622;BME280;49770;47.544;19.074;2023-02-28T08:22:31;101520.47;;;4.64;48.95
63622;BME280;49770;47.544;19.074;2023-02-28T08:25:34;101529.25;;;4.59;46.96
63622;BME280;49770;47.544;19.074;2023-02-28T08:28:37;101532.81;;;6.40;43.43
63622;BME280;49770;47.544;19.074;2023-02-28T08:31:40;101526.66;;;6.99;41.77
63622;BME280;49770;47.544;19.074;2023-02-28T08:34:44;101520.56;;;8.36;38.21
63622;BME280;49770;47.544;19.074;2023-02-28T08:37:49;101524.13;;;9.79;34.78
63622;BME280;49770;47.544;19.074;2023-02-28T08:41:05;101520.25;;;12.78;30.99
63622;BME280;49770;47.544;19.074;2023-02-28T08:44:11;101516.75;;;15.15;27.36
63622;BME280;49770;47.544;19.074;2023-02-28T08:47:14;101520.31;;;13.82;28.89
63622;BME280;49770;47.544;19.074;2023-02-28T08:50:17;101525.81;;;12.02;30.12
63622;BME280;49770;47.544;19.074;2023-02-28T08:53:20;101520.19;;;10.54;33.00
63622;BME280;49770;47.544;19.074;2023-02-28T08:56:22;101524.72;;;11.33;31.54
63622;BME280;49770;47.544;19.074;2023-02-28T08:59:27;101526.53;;;11.58;30.86
63622;BME280;49770;47.544;19.074;2023-02-28T09:02:30;101517.34;;;11.41;30.75
63622;BME280;49770;47.544;19.074;2023-02-28T09:05:34;101513.78;;;11.68;30.65
63622;BME280;49770;47.544;19.074;2023-02-28T09:08:37;101516.16;;;12.70;29.33
63622;BME280;49770;47.544;19.074;2023-02-28T09:11:39;101510.78;;;12.01;30.00
63622;BME280;49770;47.544;19.074;2023-02-28T09:14:43;101513.28;;;10.18;33.06
63622;BME280;49770;47.544;19.074;2023-02-28T09:17:46;101522.16;;;9.19;34.01
63622;BME280;49770;47.544;19.074;2023-02-28T09:20:50;101518.91;;;7.88;38.07
63622;BME280;49770;47.544;19.074;2023-02-28T09:23:53;101522.03;;;8.08;37.84
63622;BME280;49770;47.544;19.074;2023-02-28T09:26:56;101522.75;;;7.71;37.73
63622;BME280;49770;47.544;19.074;2023-02-28T09:30:08;101514.19;;;7.58;38.61
63622;BME280;49770;47.544;19.074;2023-02-28T09:33:11;101516.75;;;7.63;38.74
63622;BME280;49770;47.544;19.074;2023-02-28T09:36:14;101520.88;;;6.10;41.51
63622;BME280;49770;47.544;19.074;2023-02-28T09:39:17;101525.03;;;5.52;42.70
63622;BME280;49770;47.544;19.074;2023-02-28T09:42:47;101523.69;;;5.08;44.29
63622;BME280;49770;47.544;19.074;2023-02-28T09:46:03;101525.44;;;5.06;45.29
63622;BME280;49770;47.544;19.074;2023-02-28T09:49:14;101530.47;;;5.32;45.36
63622;BME280;49770;47.544;19.074;2023-02-28T09:52:21;101524.19;;;5.46;45.60
63622;BME280;49770;47.544;19.074;2023-02-28T09:55:33;101524.31;;;5.33;45.39
63622;BME280;49770;47.544;19.074;2023-02-28T09:58:52;101509.94;;;5.69;44.50
63622;BME280;49770;47.544;19.074;2023-02-28T10:02:17;101517.41;;;6.72;48.99
63622;BME280;49770;47.544;19.074;2023-02-28T10:05:27;101510.31;;;6.76;46.86
63622;BME280;49770;47.544;19.074;2023-02-28T10:08:41;101511.50;;;6.56;43.48
63622;BME280;49770;47.544;19.074;2023-02-28T10:11:48;101512.50;;;7.05;43.79
63622;BME280;49770;47.544;19.074;2023-02-28T10:14:54;101508.34;;;7.40;42.18
63622;BME280;49770;47.544;19.074;2023-02-28T10:18:01;101503.38;;;7.25;42.69
63622;BME280;49770;47.544;19.074;2023-02-28T10:21:31;101510.25;;;7.34;41.45
63622;BME280;49770;47.544;19.074;2023-02-28T10:27:43;101506.81;;;8.20;39.18
63622;BME280;49770;47.544;19.074;2023-02-28T10:30:51;101507.97;;;8.47;40.47
63622;BME280;49770;47.544;19.074;2023-02-28T10:33:55;101504.50;;;8.85;39.91
63622;BME280;49770;47.544;19.074;2023-02-28T10:36:59;101496.09;;;8.67;39.03
63622;BME280;49770;47.544;19.074;2023-02-28T10:43:23;101486.22;;;9.09;38.25
63622;BME280;49770;47.544;19.074;2023-02-28T10:46:29;101487.28;;;8.67;39.97
63622;BME280;49770;47.544;19.074;2023-02-28T10:49:35;101489.12;;;8.22;39.55
63622;BME280;49770;47.544;19.074;2023-02-28T10:52:41;101473.69;;;8.03;39.18
63622;BME280;49770;47.544;19.074;2023-02-28T10:55:45;101474.00;;;7.42;40.43
63622;BME280;49770;47.544;19.074;2023-02-28T10:59:03;101471.22;;;7.51;41.54
63622;BME280;49770;47.544;19.074;2023-02-28T11:02:33;101471.78;;;7.67;40.61
63622;BME280;49770;47.544;19.074;2023-02-28T11:05:42;101464.03;;;8.40;39.10
63622;BME280;49770;47.544;19.074;2023-02-28T11:08:51;101461.63;;;7.44;40.49
63622;BME280;49770;47.544;19.074;2023-02-28T11:11:56;101461.34;;;7.12;41.80
63622;BME280;49770;47.544;19.074;2023-02-28T11:15:32;101462.59;;;6.91;42.89
63622;BME280;49770;47.544;19.074;2023-02-28T11:18:51;101462.28;;;7.10;43.14
63622;BME280;49770;47.544;19.074;2023-02-28T11:22:01;101467.44;;;7.16;42.83
63622;BME280;49770;47.544;19.074;2023-02-28T11:25:37;101465.94;;;6.47;45.12
63622;BME280;49770;47.544;19.074;2023-02-28T11:28:42;101462.00;;;6.73;45.71
63622;BME280;49770;47.544;19.074;2023-02-28T11:32:14;101458.03;;;6.44;45.73
63622;BME280;49770;47.544;19.074;2023-02-28T11:35:24;101451.69;;;7.11;44.61
63622;BME280;49770;47.544;19.074;2023-02-28T11:38:28;101450.22;;;6.96;44.10
63622;BME280;49770;47.544;19.074;2023-02-28T11:41:42;101446.66;;;6.44;46.86
63622;BME280;49770;47.544;19.074;2023-02-28T11:49:02;101448.88;;;7.21;44.23
63622;BME280;49770;47.544;19.074;2023-02-28T11:52:43;101447.19;;;6.65;44.96
63622;BME280;49770;47.544;19.074;2023-02-28T11:55:54;101443.53;;;6.73;45.31
63622;BME280;49770;47.544;19.074;2023-02-28T12:03:15;101435.22;;;6.45;47.06
63622;BME280;49770;47.544;19.074;2023-02-28T12:48:48;101385.87;;;6.52;47.48
63622;BME280;49770;47.544;19.074;2023-02-28T13:14:03;101378.22;;;6.90;48.30
63622;BME280;49770;47.544;19.074;2023-02-28T13:17:12;101381.09;;;7.23;47.86
63622;BME280;49770;47.544;19.074;2023-02-28T13:20:29;101376.00;;;7.13;47.76
63622;BME280;49770;47.544;19.074;2023-02-28T13:23:55;101369.03;;;7.11;47.82
63622;BME280;49770;47.544;19.074;2023-02-28T14:04:59;101340.66;;;6.23;49.97
63622;BME280;49770;47.544;19.074;2023-02-28T14:08:19;101343.06;;;6.37;50.18
63622;BME280;49770;47.544;19.074;2023-02-28T14:11:40;101333.47;;;6.33;49.79
63622;BME280;49770;47.544;19.074;2023-02-28T14:17:46;101321.78;;;6.48;49.64
63622;BME280;49770;47.544;19.074;2023-02-28T14:20:58;101329.19;;;6.27;50.26
63622;BME280;49770;47.544;19.074;2023-02-28T14:25:08;101329.41;;;6.13;50.53
63622;BME280;49770;47.544;19.074;2023-02-28T14:31:12;101335.47;;;6.18;50.58
63622;BME280;49770;47.544;19.074;2023-02-28T14:38:06;101323.06;;;6.25;50.62
63622;BME280;49770;47.544;19.074;2023-02-28T14:41:32;101319.66;;;6.18;50.50
63622;BME280;49770;47.544;19.074;2023-02-28T14:44:37;101326.97;;;5.98;51.26
63622;BME280;49770;47.544;19.074;2023-02-28T14:47:42;101320.81;;;6.00;51.03
63622;BME280;49770;47.544;19.074;2023-02-28T14:50:51;101327.06;;;5.91;51.99
63622;BME280;49770;47.544;19.074;2023-02-28T14:54:00;101324.06;;;5.55;52.90
63622;BME280;49770;47.544;19.074;2023-02-28T14:57:23;101318.78;;;5.57;52.90
63622;BME280;49770;47.544;19.074;2023-02-28T15:00:36;101329.41;;;5.50;53.41
63622;BME280;49770;47.544;19.074;2023-02-28T15:03:41;101320.69;;;5.45;53.30
63622;BME280;49770;47.544;19.074;2023-02-28T15:07:07;101323.59;;;5.22;54.28
63622;BME280;49770;47.544;19.074;2023-02-28T15:13:29;101331.56;;;5.16;54.84
63622;BME280;49770;47.544;19.074;2023-02-28T15:16:39;101329.50;;;5.41;54.30
63622;BME280;49770;47.544;19.074;2023-02-28T15:19:46;101332.22;;;5.33;54.93
63622;BME280;49770;47.544;19.074;2023-02-28T15:22:52;101327.09;;;5.22;55.53
63622;BME280;49770;47.544;19.074;2023-02-28T15:25:59;101335.75;;;5.32;55.12
63622;BME280;49770;47.544;19.074;2023-02-28T15:29:07;101335.72;;;5.35;55.31
63622;BME280;49770;47.544;19.074;2023-02-28T15:32:40;101328.53;;;5.50;55.43
63622;BME280;49770;47.544;19.074;2023-02-28T15:35:44;101326.13;;;5.30;55.90
63622;BME280;49770;47.544;19.074;2023-02-28T15:38:51;101319.81;;;5.43;55.49
63622;BME280;49770;47.544;19.074;2023-02-28T15:42:12;101330.59;;;5.24;55.93
63622;BME280;49770;47.544;19.074;2023-02-28T15:45:32;101319.25;;;5.19;56.27
63622;BME280;49770;47.544;19.074;2023-02-28T15:51:45;101316.75;;;5.07;58.15
63622;BME280;49770;47.544;19.074;2023-02-28T15:54:48;101322.16;;;4.94;58.91
63622;BME280;49770;47.544;19.074;2023-02-28T15:57:54;101310.91;;;4.81;59.95
63622;BME280;49770;47.544;19.074;2023-02-28T16:01:20;101317.03;;;4.82;59.88
63622;BME280;49770;47.544;19.074;2023-02-28T16:04:26;101325.13;;;4.62;60.61
63622;BME280;49770;47.544;19.074;2023-02-28T16:07:38;101320.63;;;4.75;60.51
63622;BME280;49770;47.544;19.074;2023-02-28T16:10:42;101321.63;;;4.64;61.22
63622;BME280;49770;47.544;19.074;2023-02-28T16:13:44;101325.16;;;4.57;61.22
63622;BME280;49770;47.544;19.074;2023-02-28T16:16:49;101331.31;;;4.57;61.25
63622;BME280;49770;47.544;19.074;2023-02-28T16:19:54;101330.47;;;4.51;61.81
63622;BME280;49770;47.544;19.074;2023-02-28T16:22:57;101334.94;;;4.44;62.14
63622;BME280;49770;47.544;19.074;2023-02-28T16:26:04;101330.56;;;4.41;62.40
63622;BME280;49770;47.544;19.074;2023-02-28T16:29:09;101341.09;;;4.41;62.80
63622;BME280;49770;47.544;19.074;2023-02-28T16:32:16;101333.25;;;4.37;62.96
63622;BME280;49770;47.544;19.074;2023-02-28T16:35:20;101335.88;;;4.35;63.21
63622;BME280;49770;47.544;19.074;2023-02-28T16:38:22;101336.88;;;4.22;63.81
63622;BME280;49770;47.544;19.074;2023-02-28T16:41:28;101343.00;;;4.19;64.41
63622;BME280;49770;47.544;19.074;2023-02-28T16:44:33;101343.06;;;4.14;64.54
63622;BME280;49770;47.544;19.074;2023-02-28T16:47:40;101347.34;;;4.23;64.73
63622;BME280;49770;47.544;19.074;2023-02-28T16:50:44;101344.78;;;4.15;65.17
63622;BME280;49770;47.544;19.074;2023-02-28T16:53:47;101352.75;;;4.00;65.97
63622;BME280;49770;47.544;19.074;2023-02-28T16:56:50;101356.19;;;4.10;65.68
